sensor_id;sensor_type;location;lat;lon;timestamp;pressure;altitude;pressure_sealevel;temperature;humidity
21574;BME280;10948;48.706;9.258;2023-02-21T00:01:47;98318.50;;;3.77;100.00
21574;BME280;10948;48.706;9.258;2023-02-21T00:04:31;98309.75;;;3.84;100.00
21574;BME280;10948;48.706;9.258;2023-02-21T00:07:15;98306.75;;;3.67;100.00
21574;BME280;10948;48.706;9.258;2023-02-21T00:09:58;98316.19;;;3.30;100.00
21574;BME280;10948;48.706;9.258;2023-02-21T00:12:42;98314.28;;;4.08;100.00
21574;BME280;10948;48.706;9.258;2023-02-21T00:15:26;98308.91;;;3.48;100.00
21574;BME280;10948;48.706;9.258;2023-02-21T00:18:10;98302.91;;;3.13;100.00
21574;BME280;10948;48.706;9.258;2023-02-21T00:20:54;98304.97;;;3.69;100.00
21574;BME280;10948;48.706;9.258;2023-02-21T00:23:38;98311.06;;;3.30;100.00
21574;BME280;10948;48.706;9.258;2023-02-21T00:26:22;98301.41;;;3.39;100.00
21574;BME280;10948;48.706;9.258;2023-02-21T00:29:06;98299.31;;;3.55;100.00
21574;BME280;10948;48.706;9.258;2023-02-21T00:31:50;98291.00;;;3.79;100.00
21574;BME280;10948;48.706;9.258;2023-02-21T00:34:34;98288.16;;;3.56;100.00
21574;BME280;10948;48.706;9.258;2023-02-21T00:37:18;98297.53;;;3.22;100.00
21574;BME280;10948;48.706;9.258;2023-02-21T00:40:02;98290.84;;;3.51;100.00
21574;BME280;10948;48.706;9.258;2023-02-21T00:42:45;98294.63;;;3.35;100.00
21574;BME280;10948;48.706;9.258;2023-02-21T00:45:29;98288.88;;;3.26;100.00
21574;BME280;10948;48.706;9.258;2023-02-21T00:48:18;98290.72;;;3.21;100.00
21574;BME280;10948;48.706;9.258;2023-02-21T00:51:02;98298.31;;;3.25;100.00
21574;BME280;10948;48.706;9.258;2023-02-21T00:53:46;98289.19;;;3.49;100.00
21574;BME280;10948;48.706;9.258;2023-02-21T00:56:30;98293.91;;;2.92;100.00
21574;BME280;10948;48.706;9.258;2023-02-21T00:59:14;98287.88;;;3.31;100.00
21574;BME280;10948;48.706;9.258;2023-02-21T01:01:58;98282.84;;;3.27;100.00
21574;BME280;10948;48.706;9.258;2023-02-21T01:04:42;98283.94;;;3.17;100.00
21574;BME280;10948;48.706;9.258;2023-02-21T01:07:26;98287.09;;;2.90;100.00
21574;BME280;10948;48.706;9.258;2023-02-21T01:10:10;98281.97;;;3.28;100.00
21574;BME280;10948;48.706;9.258;2023-02-21T01:12:54;98276.97;;;3.22;100.00
21574;BME280;10948;48.706;9.258;2023-02-21T01:15:38;98274.16;;;3.32;100.00
21574;BME280;10948;48.706;9.258;2023-02-21T01:18:22;98276.97;;;3.22;100.00
21574;BME280;10948;48.706;9.258;2023-02-21T01:21:06;98291.88;;;3.06;100.00
21574;BME280;10948;48.706;9.258;2023-02-21T01:23:54;98288.00;;;2.89;100.00
21574;BME280;10948;48.706;9.258;2023-02-21T01:26:38;98287.41;;;3.14;100.00
21574;BME280;10948;48.706;9.258;2023-02-21T01:29:22;98280.69;;;3.45;100.00
21574;BME280;10948;48.706;9.258;2023-02-21T01:32:06;98285.06;;;3.05;100.00
21574;BME280;10948;48.706;9.258;2023-02-21T01:34:50;98273.91;;;3.05;100.00
21574;BME280;10948;48.706;9.258;2023-02-21T01:37:34;98282.78;;;2.92;100.00
21574;BME280;10948;48.706;9.258;2023-02-21T01:40:18;98270.59;;;2.62;100.00
21574;BME280;10948;48.706;9.258;2023-02-21T01:43:07;98276.84;;;2.88;100.00
21574;BME280;10948;48.706;9.258;2023-02-21T01:45:56;98273.38;;;3.29;100.00
21574;BME280;10948;48.706;9.258;2023-02-21T01:48:40;98280.41;;;2.83;100.00
21574;BME280;10948;48.706;9.258;2023-02-21T01:51:25;98268.84;;;3.02;100.00
21574;BME280;10948;48.706;9.258;2023-02-21T01:54:10;98272.31;;;3.01;100.00
21574;BME280;10948;48.706;9.258;2023-02-21T01:56:54;98267.31;;;2.95;100.00
21574;BME280;10948;48.706;9.258;2023-02-21T01:59:38;98271.16;;;2.74;100.00
21574;BME280;10948;48.706;9.258;2023-02-21T02:02:28;98267.13;;;2.64;100.00
21574;BME280;10948;48.706;9.258;2023-02-21T02:05:13;98256.09;;;2.58;100.00
21574;BME280;10948;48.706;9.258;2023-02-21T02:07:57;98262.66;;;2.31;100.00
21574;BME280;10948;48.706;9.258;2023-02-21T02:10:41;98264.56;;;2.63;100.00
21574;BME280;10948;48.706;9.258;2023-02-21T02:18:42;98262.69;;;2.71;100.00
21574;BME280;10948;48.706;9.258;2023-02-21T02:26:40;98259.41;;;2.23;100.00
21574;BME280;10948;48.706;9.258;2023-02-21T02:32:14;98254.19;;;2.26;100.00
21574;BME280;10948;48.706;9.258;2023-02-21T02:39:47;98239.53;;;2.33;100.00
21574;BME280;10948;48.706;9.258;2023-02-21T02:44:43;98239.78;;;2.21;100.00
21574;BME280;10948;48.706;9.258;2023-02-21T02:47:18;98235.31;;;2.29;100.00
21574;BME280;10948;48.706;9.258;2023-02-21T02:49:44;98232.81;;;1.83;100.00
21574;BME280;10948;48.706;9.258;2023-02-21T02:52:10;98224.31;;;1.80;100.00
21574;BME280;10948;48.706;9.258;2023-02-21T02:54:36;98233.00;;;2.17;100.00
21574;BME280;10948;48.706;9.258;2023-02-21T02:57:02;98224.50;;;2.15;100.00
21574;BME280;10948;48.706;9.258;2023-02-21T02:59:34;98225.34;;;1.70;100.00
21574;BME280;10948;48.706;9.258;2023-02-21T03:13:14;98229.97;;;1.97;100.00
21574;BME280;10948;48.706;9.258;2023-02-21T03:18:36;98235.97;;;1.97;100.00
21574;BME280;10948;48.706;9.258;2023-02-21T03:21:06;98240.94;;;2.05;100.00
21574;BME280;10948;48.706;9.258;2023-02-21T03:23:33;98230.56;;;1.64;100.00
21574;BME280;10948;48.706;9.258;2023-02-21T03:26:00;98232.22;;;1.68;100.00
21574;BME280;10948;48.706;9.258;2023-02-21T03:28:27;98225.56;;;1.58;100.00
21574;BME280;10948;48.706;9.258;2023-02-21T03:30:54;98229.56;;;1.74;100.00
21574;BME280;10948;48.706;9.258;2023-02-21T03:33:20;98230.56;;;1.64;100.00
21574;BME280;10948;48.706;9.258;2023-02-21T03:35:45;98235.16;;;1.47;100.00
21574;BME280;10948;48.706;9.258;2023-02-21T03:38:11;98231.63;;;1.54;100.00
21574;BME280;10948;48.706;9.258;2023-02-21T03:40:36;98230.53;;;1.67;100.00
21574;BME280;10948;48.706;9.258;2023-02-21T03:43:02;98227.03;;;1.71;100.00
21574;BME280;10948;48.706;9.258;2023-02-21T03:45:31;98223.75;;;1.63;100.00
21574;BME280;10948;48.706;9.258;2023-02-21T03:47:56;98226.59;;;1.95;100.00
21574;BME280;10948;48.706;9.258;2023-02-21T03:50:21;98226.63;;;1.92;100.00
21574;BME280;10948;48.706;9.258;2023-02-21T03:52:46;98231.72;;;1.48;100.00
21574;BME280;10948;48.706;9.258;2023-02-21T03:55:12;98231.53;;;1.60;100.00
21574;BME280;10948;48.706;9.258;2023-02-21T03:57:37;98228.69;;;1.75;100.00
21574;BME280;10948;48.706;9.258;2023-02-21T04:00:02;98221.88;;;1.72;100.00
21574;BME280;10948;48.706;9.258;2023-02-21T04:02:27;98227.63;;;1.38;100.00
21574;BME280;10948;48.706;9.258;2023-02-21T04:04:53;98227.78;;;1.29;100.00
21574;BME280;10948;48.706;9.258;2023-02-21T04:07:18;98232.59;;;1.47;100.00
21574;BME280;10948;48.706;9.258;2023-02-21T04:09:44;98228.06;;;1.11;100.00
21574;BME280;10948;48.706;9.258;2023-02-21T04:12:10;98235.50;;;1.26;100.00
21574;BME280;10948;48.706;9.258;2023-02-21T04:14:35;98232.94;;;1.26;100.00
21574;BME280;10948;48.706;9.258;2023-02-21T04:17:01;98230.72;;;1.56;100.00
21574;BME280;10948;48.706;9.258;2023-02-21T04:19:26;98228.38;;;1.43;100.00
21574;BME280;10948;48.706;9.258;2023-02-21T04:21:51;98232.22;;;1.68;100.00
21574;BME280;10948;48.706;9.258;2023-02-21T04:24:16;98228.63;;;1.78;100.00
21574;BME280;10948;48.706;9.258;2023-02-21T04:26:41;98229.16;;;1.48;100.00
21574;BME280;10948;48.706;9.258;2023-02-21T04:29:07;98220.63;;;1.46;100.00
21574;BME280;10948;48.706;9.258;2023-02-21T04:31:32;98222.94;;;1.61;100.00
21574;BME280;10948;48.706;9.258;2023-02-21T04:33:58;98226.03;;;1.79;100.00
21574;BME280;10948;48.706;9.258;2023-02-21T04:36:24;98231.97;;;1.81;100.00
21574;BME280;10948;48.706;9.258;2023-02-21T04:38:49;98237.56;;;1.56;100.00
21574;BME280;10948;48.706;9.258;2023-02-21T04:41:14;98231.25;;;1.25;100.00
21574;BME280;10948;48.706;9.258;2023-02-21T04:43:40;98233.34;;;1.53;100.00
21574;BME280;10948;48.706;9.258;2023-02-21T04:46:06;98235.78;;;1.61;100.00
21574;BME280;10948;48.706;9.258;2023-02-21T04:48:31;98240.63;;;1.76;100.00
21574;BME280;10948;48.706;9.258;2023-02-21T04:50:56;98231.16;;;1.79;100.00
21574;BME280;10948;48.706;9.258;2023-02-21T04:53:21;98230.16;;;1.88;100.00
21574;BME280;10948;48.706;9.258;2023-02-21T04:55:46;98226.22;;;1.69;100.00
21574;BME280;10948;48.706;9.258;2023-02-21T04:58:12;98227.88;;;1.71;100.00
21574;BME280;10948;48.706;9.258;2023-02-21T05:00:37;98229.16;;;1.48;100.00
21574;BME280;10948;48.706;9.258;2023-02-21T05:03:02;98237.25;;;1.22;100.00
21574;BME280;10948;48.706;9.258;2023-02-21T05:05:27;98233.50;;;1.43;100.00
21574;BME280;10948;48.706;9.258;2023-02-21T05:07:53;98226.16;;;1.72;100.00
21574;BME280;10948;48.706;9.258;2023-02-21T05:10:18;98224.31;;;1.33;100.00
21574;BME280;10948;48.706;9.258;2023-02-21T05:12:43;98225.59;;;1.05;100.00
21574;BME280;10948;48.706;9.258;2023-02-21T05:15:09;98223.81;;;1.08;100.00
21574;BME280;10948;48.706;9.258;2023-02-21T05:17:34;98225.50;;;1.11;100.00
21574;BME280;10948;48.706;9.258;2023-02-21T05:20:00;98218.34;;;1.29;100.00
21574;BME280;10948;48.706;9.258;2023-02-21T05:22:25;98216.53;;;1.37;100.00
21574;BME280;10948;48.706;9.258;2023-02-21T05:24:50;98213.50;;;1.63;100.00
21574;BME280;10948;48.706;9.258;2023-02-21T05:27:17;98214.75;;;1.41;100.00
21574;BME280;10948;48.706;9.258;2023-02-21T05:29:48;98211.41;;;0.83;100.00
21574;BME280;10948;48.706;9.258;2023-02-21T05:32:15;98213.06;;;0.87;100.00
21574;BME280;10948;48.706;9.258;2023-02-21T05:34:40;98207.84;;;0.93;100.00
21574;BME280;10948;48.706;9.258;2023-02-21T05:37:11;98221.34;;;1.04;100.00
21574;BME280;10948;48.706;9.258;2023-02-21T05:39:37;98225.00;;;1.41;100.00
21574;BME280;10948;48.706;9.258;2023-02-21T05:42:02;98222.91;;;1.14;100.00
21574;BME280;10948;48.706;9.258;2023-02-21T05:44:27;98224.94;;;1.45;100.00
21574;BME280;10948;48.706;9.258;2023-02-21T05:46:53;98226.16;;;1.23;100.00
21574;BME280;10948;48.706;9.258;2023-02-21T05:49:18;98229.97;;;1.00;100.00
21574;BME280;10948;48.706;9.258;2023-02-21T05:51:43;98231.56;;;1.05;100.00
21574;BME280;10948;48.706;9.258;2023-02-21T05:54:10;98235.41;;;1.32;100.00
21574;BME280;10948;48.706;9.258;2023-02-21T05:56:38;98226.59;;;1.48;100.00
21574;BME280;10948;48.706;9.258;2023-02-21T05:59:04;98228.88;;;1.13;100.00
21574;BME280;10948;48.706;9.258;2023-02-21T06:01:29;98234.41;;;1.42;100.00
21574;BME280;10948;48.706;9.258;2023-02-21T06:03:54;98227.31;;;1.56;100.00
21574;BME280;10948;48.706;9.258;2023-02-21T06:06:19;98230.78;;;1.02;100.00
21574;BME280;10948;48.706;9.258;2023-02-21T06:08:45;98230.25;;;1.33;100.00
21574;BME280;10948;48.706;9.258;2023-02-21T06:11:11;98230.50;;;1.20;100.00
21574;BME280;10948;48.706;9.258;2023-02-21T06:13:36;98228.16;;;1.05;100.00
21574;BME280;10948;48.706;9.258;2023-02-21T06:16:01;98224.13;;;1.42;100.00
21574;BME280;10948;48.706;9.258;2023-02-21T06:18:27;98222.28;;;1.50;100.00
21574;BME280;10948;48.706;9.258;2023-02-21T06:20:52;98219.31;;;1.24;100.00
21574;BME280;10948;48.706;9.258;2023-02-21T06:23:17;98225.72;;;1.49;100.00
21574;BME280;10948;48.706;9.258;2023-02-21T06:25:43;98230.94;;;1.43;100.00
21574;BME280;10948;48.706;9.258;2023-02-21T06:28:11;98212.13;;;1.44;100.00
21574;BME280;10948;48.706;9.258;2023-02-21T06:30:36;98212.03;;;1.50;100.00
21574;BME280;10948;48.706;9.258;2023-02-21T06:33:02;98214.97;;;1.76;100.00
21574;BME280;10948;48.706;9.258;2023-02-21T06:35:27;98211.81;;;1.62;100.00
21574;BME280;10948;48.706;9.258;2023-02-21T06:37:52;98214.91;;;1.79;100.00
21574;BME280;10948;48.706;9.258;2023-02-21T06:40:17;98216.88;;;1.65;100.00
21574;BME280;10948;48.706;9.258;2023-02-21T06:42:43;98218.09;;;1.91;100.00
21574;BME280;10948;48.706;9.258;2023-02-21T06:45:08;98215.81;;;2.20;100.00
21574;BME280;10948;48.706;9.258;2023-02-21T06:47:33;98216.16;;;2.04;100.00
21574;BME280;10948;48.706;9.258;2023-02-21T06:49:59;98212.09;;;2.35;100.00
21574;BME280;10948;48.706;9.258;2023-02-21T06:52:24;98226.03;;;2.64;100.00
21574;BME280;10948;48.706;9.258;2023-02-21T06:54:49;98227.38;;;2.80;100.00
21574;BME280;10948;48.706;9.258;2023-02-21T06:57:15;98221.78;;;2.62;100.00
21574;BME280;10948;48.706;9.258;2023-02-21T06:59:40;98228.88;;;2.51;100.00
21574;BME280;10948;48.706;9.258;2023-02-21T07:02:07;98230.94;;;2.73;100.00
21574;BME280;10948;48.706;9.258;2023-02-21T07:04:35;98229.97;;;2.79;100.00
21574;BME280;10948;48.706;9.258;2023-02-21T07:07:00;98228.81;;;2.92;100.00
21574;BME280;10948;48.706;9.258;2023-02-21T07:09:25;98234.28;;;3.15;100.00
21574;BME280;10948;48.706;9.258;2023-02-21T07:11:51;98225.63;;;3.54;100.00
21574;BME280;10948;48.706;9.258;2023-02-21T07:14:16;98225.78;;;3.80;100.00
21574;BME280;10948;48.706;9.258;2023-02-21T07:16:41;98221.59;;;4.08;100.00
21574;BME280;10948;48.706;9.258;2023-02-21T07:19:07;98228.50;;;4.94;100.00
21574;BME280;10948;48.706;9.258;2023-02-21T07:21:33;98228.16;;;5.04;99.49
21574;BME280;10948;48.706;9.258;2023-02-21T07:23:58;98215.81;;;5.41;98.16
21574;BME280;10948;48.706;9.258;2023-02-21T07:26:23;98219.69;;;5.80;93.51
21574;BME280;10948;48.706;9.258;2023-02-21T07:28:48;98223.34;;;6.22;90.98
21574;BME280;10948;48.706;9.258;2023-02-21T07:31:14;98224.28;;;6.44;88.29
21574;BME280;10948;48.706;9.258;2023-02-21T07:33:39;98210.53;;;6.88;88.68
21574;BME280;10948;48.706;9.258;2023-02-21T07:36:04;98209.19;;;8.04;82.26
21574;BME280;10948;48.706;9.258;2023-02-21T07:38:30;98210.00;;;9.71;75.91
21574;BME280;10948;48.706;9.258;2023-02-21T07:40:56;98203.72;;;11.36;66.29
21574;BME280;10948;48.706;9.258;2023-02-21T07:43:21;98203.81;;;13.21;58.69
21574;BME280;10948;48.706;9.258;2023-02-21T07:45:48;98208.69;;;14.05;54.21
21574;BME280;10948;48.706;9.258;2023-02-21T07:48:13;98205.09;;;13.81;52.32
21574;BME280;10948;48.706;9.258;2023-02-21T07:50:39;98212.84;;;14.84;51.32
21574;BME280;10948;48.706;9.258;2023-02-21T07:53:04;98211.13;;;15.44;48.12
21574;BME280;10948;48.706;9.258;2023-02-21T07:55:30;98215.13;;;14.88;48.20
21574;BME280;10948;48.706;9.258;2023-02-21T07:57:55;98203.91;;;16.62;47.03
21574;BME280;10948;48.706;9.258;2023-02-21T08:00:20;98204.50;;;16.54;45.85
21574;BME280;10948;48.706;9.258;2023-02-21T08:02:49;98205.16;;;16.34;45.56
21574;BME280;10948;48.706;9.258;2023-02-21T08:05:15;98202.38;;;16.92;45.38
21574;BME280;10948;48.706;9.258;2023-02-21T08:07:40;98204.84;;;16.93;43.93
21574;BME280;10948;48.706;9.258;2023-02-21T08:10:06;98203.94;;;15.93;45.05
21574;BME280;10948;48.706;9.258;2023-02-21T08:12:31;98213.56;;;12.77;50.26
21574;BME280;10948;48.706;9.258;2023-02-21T08:14:56;98218.88;;;11.45;54.73
21574;BME280;10948;48.706;9.258;2023-02-21T08:17:22;98217.78;;;11.18;57.94
21574;BME280;10948;48.706;9.258;2023-02-21T08:19:47;98207.31;;;11.49;57.64
21574;BME280;10948;48.706;9.258;2023-02-21T08:22:12;98209.25;;;13.18;56.39
21574;BME280;10948;48.706;9.258;2023-02-21T08:24:37;98198.41;;;17.08;48.32
21574;BME280;10948;48.706;9.258;2023-02-21T08:27:02;98208.94;;;17.73;44.64
21574;BME280;10948;48.706;9.258;2023-02-21T08:29:28;98199.59;;;17.37;44.03
21574;BME280;10948;48.706;9.258;2023-02-21T08:31:53;98209.47;;;17.34;43.83
21574;BME280;10948;48.706;9.258;2023-02-21T08:34:18;98217.50;;;16.45;45.52
21574;BME280;10948;48.706;9.258;2023-02-21T08:36:43;98215.28;;;16.28;45.47
21574;BME280;10948;48.706;9.258;2023-02-21T08:39:09;98207.47;;;16.61;45.49
21574;BME280;10948;48.706;9.258;2023-02-21T08:41:35;98222.78;;;15.87;46.24
21574;BME280;10948;48.706;9.258;2023-02-21T08:44:01;98209.63;;;16.99;45.45
21574;BME280;10948;48.706;9.258;2023-02-21T08:46:26;98212.00;;;17.35;44.88
21574;BME280;10948;48.706;9.258;2023-02-21T08:48:51;98214.06;;;18.26;43.57
21574;BME280;10948;48.706;9.258;2023-02-21T08:51:16;98210.78;;;19.05;42.28
21574;BME280;10948;48.706;9.258;2023-02-21T08:53:42;98201.25;;;20.38;40.91
21574;BME280;10948;48.706;9.258;2023-02-21T08:56:07;98194.50;;;20.07;40.59
21574;BME280;10948;48.706;9.258;2023-02-21T08:58:32;98198.97;;;17.87;43.32
21574;BME280;10948;48.706;9.258;2023-02-21T09:00:58;98197.19;;;17.23;45.87
21574;BME280;10948;48.706;9.258;2023-02-21T09:03:23;98203.56;;;16.88;47.78
21574;BME280;10948;48.706;9.258;2023-02-21T09:05:48;98203.50;;;15.99;47.65
21574;BME280;10948;48.706;9.258;2023-02-21T09:08:14;98202.69;;;15.15;49.43
21574;BME280;10948;48.706;9.258;2023-02-21T09:10:40;98203.34;;;15.55;49.97
21574;BME280;10948;48.706;9.258;2023-02-21T09:13:11;98198.38;;;15.74;50.34
21574;BME280;10948;48.706;9.258;2023-02-21T09:15:38;98194.97;;;15.37;50.41
21574;BME280;10948;48.706;9.258;2023-02-21T09:18:03;98195.50;;;16.35;49.48
21574;BME280;10948;48.706;9.258;2023-02-21T09:20:32;98193.53;;;16.15;49.04
21574;BME280;10948;48.706;9.258;2023-02-21T09:23:08;98196.72;;;16.07;49.59
21574;BME280;10948;48.706;9.258;2023-02-21T09:25:48;98199.22;;;17.09;48.82
21574;BME280;10948;48.706;9.258;2023-02-21T09:28:14;98194.47;;;16.70;48.18
21574;BME280;10948;48.706;9.258;2023-02-21T09:30:40;98194.34;;;17.04;48.28
21574;BME280;10948;48.706;9.258;2023-02-21T09:33:05;98194.13;;;16.86;47.66
21574;BME280;10948;48.706;9.258;2023-02-21T09:35:31;98194.16;;;17.50;47.03
21574;BME280;10948;48.706;9.258;2023-02-21T09:37:56;98187.00;;;17.52;46.81
21574;BME280;10948;48.706;9.258;2023-02-21T09:43:16;98184.03;;;18.49;45.30
21574;BME280;10948;48.706;9.258;2023-02-21T09:45:43;98182.78;;;18.53;45.08
21574;BME280;10948;48.706;9.258;2023-02-21T09:48:17;98176.25;;;17.33;45.65
21574;BME280;10948;48.706;9.258;2023-02-21T09:50:48;98184.13;;;18.48;44.91
21574;BME280;10948;48.706;9.258;2023-02-21T09:53:15;98175.69;;;18.74;43.77
21574;BME280;10948;48.706;9.258;2023-02-21T09:55:43;98177.41;;;18.85;43.90
21574;BME280;10948;48.706;9.258;2023-02-21T09:58:12;98173.88;;;18.75;43.57
21574;BME280;10948;48.706;9.258;2023-02-21T10:00:38;98171.31;;;18.94;43.26
21574;BME280;10948;48.706;9.258;2023-02-21T10:05:50;98167.94;;;18.82;43.69
21574;BME280;10948;48.706;9.258;2023-02-21T10:10:47;98165.66;;;19.85;42.52
21574;BME280;10948;48.706;9.258;2023-02-21T10:20:57;98157.81;;;20.41;42.22
21574;BME280;10948;48.706;9.258;2023-02-21T10:23:30;98170.34;;;20.48;41.75
21574;BME280;10948;48.706;9.258;2023-02-21T10:25:59;98160.78;;;19.90;41.47
21574;BME280;10948;48.706;9.258;2023-02-21T10:28:26;98166.63;;;20.87;40.90
21574;BME280;10948;48.706;9.258;2023-02-21T10:30:54;98159.03;;;21.02;40.62
21574;BME280;10948;48.706;9.258;2023-02-21T10:33:21;98159.53;;;20.69;40.39
21574;BME280;10948;48.706;9.258;2023-02-21T10:35:47;98152.22;;;21.26;41.00
21574;BME280;10948;48.706;9.258;2023-02-21T10:38:13;98159.28;;;20.16;40.35
21574;BME280;10948;48.706;9.258;2023-02-21T10:40:41;98165.44;;;20.99;41.60
21574;BME280;10948;48.706;9.258;2023-02-21T10:43:25;98159.19;;;20.54;41.13
21574;BME280;10948;48.706;9.258;2023-02-21T10:45:52;98158.25;;;20.82;41.38
21574;BME280;10948;48.706;9.258;2023-02-21T10:48:21;98150.13;;;21.47;39.72
21574;BME280;10948;48.706;9.258;2023-02-21T10:51:03;98157.69;;;21.42;40.13
21574;BME280;10948;48.706;9.258;2023-02-21T10:53:33;98152.25;;;21.61;40.01
21574;BME280;10948;48.706;9.258;2023-02-21T10:58:30;98147.28;;;21.93;39.25
21574;BME280;10948;48.706;9.258;2023-02-21T11:00:56;98143.28;;;21.72;39.63
21574;BME280;10948;48.706;9.258;2023-02-21T11:03:21;98139.00;;;22.57;38.57
21574;BME280;10948;48.706;9.258;2023-02-21T11:05:54;98136.00;;;21.74;39.33
21574;BME280;10948;48.706;9.258;2023-02-21T11:08:34;98134.19;;;21.74;38.91
21574;BME280;10948;48.706;9.258;2023-02-21T11:11:00;98132.72;;;21.97;38.96
21574;BME280;10948;48.706;9.258;2023-02-21T11:13:26;98130.13;;;21.35;39.50
21574;BME280;10948;48.706;9.258;2023-02-21T11:16:37;98127.38;;;21.89;38.58
21574;BME280;10948;48.706;9.258;2023-02-21T11:18:37;98119.53;;;22.05;38.49
21574;BME280;10948;48.706;9.258;2023-02-21T11:21:09;98115.03;;;21.80;38.96
21574;BME280;10948;48.706;9.258;2023-02-21T11:23:35;98108.84;;;22.99;38.23
21574;BME280;10948;48.706;9.258;2023-02-21T11:26:07;98112.19;;;23.09;37.99
21574;BME280;10948;48.706;9.258;2023-02-21T11:28:37;98103.34;;;22.59;37.68
21574;BME280;10948;48.706;9.258;2023-02-21T11:31:11;98102.28;;;22.01;38.28
21574;BME280;10948;48.706;9.258;2023-02-21T11:33:41;98093.66;;;22.50;37.43
21574;BME280;10948;48.706;9.258;2023-02-21T11:36:12;98096.66;;;22.04;37.95
21574;BME280;10948;48.706;9.258;2023-02-21T11:38:42;98086.63;;;22.16;38.18
21574;BME280;10948;48.706;9.258;2023-02-21T11:44:17;98074.91;;;23.35;37.07
21574;BME280;10948;48.706;9.258;2023-02-21T11:46:38;98077.22;;;22.21;37.82
21574;BME280;10948;48.706;9.258;2023-02-21T11:54:00;98053.53;;;23.68;35.67
21574;BME280;10948;48.706;9.258;2023-02-21T12:04:24;98033.66;;;23.07;37.35
21574;BME280;10948;48.706;9.258;2023-02-21T12:06:56;98035.91;;;23.43;36.57
21574;BME280;10948;48.706;9.258;2023-02-21T12:09:26;98022.91;;;24.28;36.14
21574;BME280;10948;48.706;9.258;2023-02-21T12:12:02;98024.28;;;23.68;36.39
21574;BME280;10948;48.706;9.258;2023-02-21T12:33:18;97987.34;;;22.18;37.02
21574;BME280;10948;48.706;9.258;2023-02-21T12:46:41;97958.06;;;22.61;37.12
21574;BME280;10948;48.706;9.258;2023-02-21T12:48:53;97960.59;;;22.37;37.78
21574;BME280;10948;48.706;9.258;2023-02-21T12:51:24;97950.19;;;23.09;36.66
21574;BME280;10948;48.706;9.258;2023-02-21T12:53:55;97952.22;;;23.47;35.63
21574;BME280;10948;48.706;9.258;2023-02-21T12:59:07;97940.84;;;22.73;36.61
21574;BME280;10948;48.706;9.258;2023-02-21T13:01:39;97928.34;;;22.16;37.10
21574;BME280;10948;48.706;9.258;2023-02-21T13:06:38;97919.97;;;22.94;36.36
21574;BME280;10948;48.706;9.258;2023-02-21T13:09:14;97923.94;;;23.62;36.62
21574;BME280;10948;48.706;9.258;2023-02-21T13:11:57;97910.47;;;22.68;36.84
21574;BME280;10948;48.706;9.258;2023-02-21T13:14:44;97904.88;;;23.11;37.17
21574;BME280;10948;48.706;9.258;2023-02-21T13:17:12;97897.81;;;22.46;37.44
21574;BME280;10948;48.706;9.258;2023-02-21T13:19:45;97891.59;;;22.21;37.33
21574;BME280;10948;48.706;9.258;2023-02-21T13:25:20;97879.75;;;22.49;37.94
21574;BME280;10948;48.706;9.258;2023-02-21T13:28:12;97877.66;;;22.19;38.15
21574;BME280;10948;48.706;9.258;2023-02-21T13:30:38;97872.50;;;22.75;37.88
21574;BME280;10948;48.706;9.258;2023-02-21T13:33:04;97874.69;;;22.30;38.11
21574;BME280;10948;48.706;9.258;2023-02-21T13:35:34;97866.00;;;22.62;37.82
21574;BME280;10948;48.706;9.258;2023-02-21T13:38:00;97859.13;;;22.27;38.23
21574;BME280;10948;48.706;9.258;2023-02-21T13:40:35;97858.81;;;21.55;38.77
21574;BME280;10948;48.706;9.258;2023-02-21T13:43:44;97850.06;;;21.96;38.63
21574;BME280;10948;48.706;9.258;2023-02-21T13:45:50;97847.28;;;22.55;37.79
21574;BME280;10948;48.706;9.258;2023-02-21T13:48:18;97841.28;;;22.45;38.04
21574;BME280;10948;48.706;9.258;2023-02-21T13:50:45;97845.19;;;22.25;38.73
21574;BME280;10948;48.706;9.258;2023-02-21T13:53:18;97843.22;;;22.27;38.80
21574;BME280;10948;48.706;9.258;2023-02-21T13:58:40;97835.56;;;22.32;38.63
21574;BME280;10948;48.706;9.258;2023-02-21T14:03:42;97824.66;;;21.78;38.09
21574;BME280;10948;48.706;9.258;2023-02-21T14:18:43;97807.84;;;22.03;38.67
21574;BME280;10948;48.706;9.258;2023-02-21T14:21:13;97808.06;;;21.76;38.47
21574;BME280;10948;48.706;9.258;2023-02-21T14:23:49;97797.44;;;21.68;38.25
21574;BME280;10948;48.706;9.258;2023-02-21T14:28:59;97788.91;;;21.48;38.77
21574;BME280;10948;48.706;9.258;2023-02-21T14:34:09;97799.53;;;20.80;39.08
21574;BME280;10948;48.706;9.258;2023-02-21T14:36:35;97791.03;;;20.68;38.97
21574;BME280;10948;48.706;9.258;2023-02-21T14:39:02;97793.06;;;20.74;39.64
21574;BME280;10948;48.706;9.258;2023-02-21T14:41:44;97785.00;;;21.01;39.13
21574;BME280;10948;48.706;9.258;2023-02-21T14:50:03;97779.31;;;20.71;40.43
21574;BME280;10948;48.706;9.258;2023-02-21T14:52:37;97775.53;;;20.38;40.55
21574;BME280;10948;48.706;9.258;2023-02-21T14:58:08;97767.31;;;19.79;42.01
21574;BME280;10948;48.706;9.258;2023-02-21T15:03:16;97762.22;;;19.78;41.96
21574;BME280;10948;48.706;9.258;2023-02-21T15:05:48;97761.88;;;19.63;41.78
21574;BME280;10948;48.706;9.258;2023-02-21T15:08:19;97762.41;;;19.40;42.00
21574;BME280;10948;48.706;9.258;2023-02-21T15:10:46;97756.91;;;19.33;42.25
21574;BME280;10948;48.706;9.258;2023-02-21T15:13:22;97754.19;;;19.06;42.04
21574;BME280;10948;48.706;9.258;2023-02-21T15:15:53;97755.47;;;19.02;42.77
21574;BME280;10948;48.706;9.258;2023-02-21T15:18:23;97753.41;;;18.96;42.78
21574;BME280;10948;48.706;9.258;2023-02-21T15:21:04;97752.31;;;18.89;43.47
21574;BME280;10948;48.706;9.258;2023-02-21T15:23:32;97750.41;;;18.63;43.71
21574;BME280;10948;48.706;9.258;2023-02-21T15:25:58;97745.75;;;18.57;44.11
21574;BME280;10948;48.706;9.258;2023-02-21T15:28:26;97746.31;;;18.51;44.01
21574;BME280;10948;48.706;9.258;2023-02-21T15:30:58;97749.34;;;18.46;44.46
21574;BME280;10948;48.706;9.258;2023-02-21T15:33:25;97744.91;;;18.18;44.67
21574;BME280;10948;48.706;9.258;2023-02-21T15:35:59;97751.28;;;18.16;44.86
21574;BME280;10948;48.706;9.258;2023-02-21T15:38:27;97746.28;;;18.13;44.57